Time;durP1;ratioP1;P1;durP2;ratioP2;P2;SDS_P1;SDS_P2;PMS_P1;PMS_P2;Temp;Humidity;BMP_temperature;BMP_pressure;BME280_temperature;BME280_humidity;BME280_pressure;Samples;Min_cycle;Max_cycle;Signal;HPM_P1;HPM_P2
2021/12/02 00:02:04;;;;;;;2.05;0.90;;;5.20;99.90;;;;;;4935431;29;20039;-61
2021/12/02 00:04:32;;;;;;;5.10;1.00;;;5.20;99.90;;;;;;4936518;29;20032;-62
2021/12/02 00:06:58;;;;;;;3.20;1.02;;;5.20;99.90;;;;;;4938557;29;20031;-62
2021/12/02 00:09:24;;;;;;;3.90;1.10;;;5.20;99.90;;;;;;4935912;29;20392;-62
2021/12/02 00:11:50;;;;;;;2.03;1.00;;;5.30;99.90;;;;;;4934826;29;20027;-62
2021/12/02 00:14:22;;;;;;;2.28;1.10;;;5.20;99.90;;;;;;4939238;29;20031;-62
2021/12/02 00:22:12;;;;;;;4.57;1.23;;;5.20;99.90;;;;;;4935720;29;20079;-62
2021/12/02 00:24:39;;;;;;;2.53;1.40;;;5.20;99.90;;;;;;4938833;28;20047;-62
2021/12/02 00:27:07;;;;;;;4.28;1.48;;;5.20;99.90;;;;;;4952965;29;20059;-61
2021/12/02 00:29:34;;;;;;;3.08;1.10;;;5.10;99.90;;;;;;4952648;29;20028;-62
2021/12/02 00:32:04;;;;;;;2.22;1.20;;;5.10;99.90;;;;;;4952997;29;20031;-62
2021/12/02 00:34:30;;;;;;;2.50;0.95;;;5.00;99.90;;;;;;4952884;29;20039;-62
2021/12/02 00:36:57;;;;;;;3.85;1.27;;;5.10;99.90;;;;;;4953278;29;20031;-62
2021/12/02 00:39:24;;;;;;;1.38;0.70;;;5.10;99.90;;;;;;4952449;29;20023;-62
2021/12/02 00:41:50;;;;;;;3.42;1.00;;;5.10;99.90;;;;;;4952439;29;20034;-62
2021/12/02 00:44:18;;;;;;;2.15;0.77;;;5.10;99.90;;;;;;4953026;29;20027;-62
2021/12/02 00:46:45;;;;;;;3.63;1.10;;;5.10;99.90;;;;;;4952825;29;20480;-62
2021/12/02 00:49:14;;;;;;;2.15;1.00;;;5.10;99.90;;;;;;4952807;29;20538;-61
2021/12/02 00:51:41;;;;;;;2.13;0.88;;;5.00;99.90;;;;;;4951946;29;20026;-62
2021/12/02 00:54:10;;;;;;;2.85;1.10;;;5.00;99.90;;;;;;4952979;29;20027;-61
2021/12/02 00:56:37;;;;;;;5.68;0.88;;;5.00;99.90;;;;;;4951873;29;20031;-62
2021/12/02 00:59:04;;;;;;;5.30;1.02;;;5.00;99.90;;;;;;4952952;29;20486;-62
2021/12/02 01:01:35;;;;;;;3.72;0.90;;;5.00;99.90;;;;;;4951585;29;20035;-62
2021/12/02 01:04:03;;;;;;;;;;;4.90;99.90;;;;;;4953847;29;20050;-62
2021/12/02 01:06:28;;;;;;;2.95;0.80;;;4.90;99.90;;;;;;4952221;29;19914;-62
2021/12/02 01:08:54;;;;;;;3.30;0.85;;;4.80;99.90;;;;;;4952865;28;20083;-62
2021/12/02 01:11:21;;;;;;;2.33;0.98;;;4.80;99.90;;;;;;4951774;28;20394;-62
2021/12/02 01:13:47;;;;;;;3.15;0.88;;;4.70;99.90;;;;;;4951787;29;20476;-62
2021/12/02 01:16:18;;;;;;;1.60;0.82;;;4.70;99.90;;;;;;4953075;29;20478;-61
2021/12/02 01:18:43;;;;;;;2.90;0.70;;;4.70;99.90;;;;;;4950236;28;20150;-62
2021/12/02 01:21:18;;;;;;;2.63;0.90;;;4.70;99.90;;;;;;4952093;29;20583;-62
2021/12/02 01:23:45;;;;;;;1.38;0.70;;;4.60;99.90;;;;;;4952547;29;20043;-62
2021/12/02 01:26:16;;;;;;;3.88;0.90;;;4.60;99.90;;;;;;4951939;29;20077;-61
2021/12/02 01:28:43;;;;;;;5.72;1.15;;;4.60;99.90;;;;;;4951559;29;20163;-62
2021/12/02 01:31:11;;;;;;;4.15;1.10;;;4.40;99.90;;;;;;4951570;29;20023;-62
2021/12/02 01:33:39;;;;;;;2.30;0.90;;;4.40;99.90;;;;;;4951342;29;20046;-61
2021/12/02 01:36:05;;;;;;;2.55;0.98;;;4.30;99.90;;;;;;4951530;29;20074;-61
2021/12/02 01:38:32;;;;;;;1.63;0.63;;;4.40;99.90;;;;;;4951487;29;20042;-61
2021/12/02 01:41:01;;;;;;;1.55;0.75;;;4.40;99.90;;;;;;4951000;29;20027;-62
2021/12/02 01:43:49;;;;;;;2.10;1.00;;;4.40;99.90;;;;;;4950270;29;20463;-62
2021/12/02 01:46:21;;;;;;;2.88;0.55;;;4.40;99.90;;;;;;4947519;29;20422;-62
2021/12/02 01:49:04;;;;;;;0.90;0.40;;;4.40;99.90;;;;;;4950613;29;20050;-62
2021/12/02 01:51:36;;;;;;;1.58;0.63;;;4.40;99.90;;;;;;4949786;29;20054;-62
2021/12/02 01:54:08;;;;;;;2.00;0.60;;;4.40;99.90;;;;;;4951879;29;20039;-62
2021/12/02 01:56:42;;;;;;;1.23;0.45;;;4.40;99.90;;;;;;4951118;29;20031;-62
2021/12/02 01:59:15;;;;;;;1.40;0.70;;;4.40;99.90;;;;;;4951245;29;20035;-61
2021/12/02 02:01:43;;;;;;;2.05;0.80;;;4.40;99.90;;;;;;4947754;28;20041;-62
2021/12/02 02:04:09;;;;;;;1.05;0.60;;;4.50;99.90;;;;;;4937225;29;20417;-62
2021/12/02 02:07:03;;;;;;;1.13;0.52;;;4.50;99.90;;;;;;4951223;29;20034;-62
2021/12/02 02:09:31;;;;;;;1.13;0.52;;;4.60;99.90;;;;;;4950336;29;20038;-62
2021/12/02 02:12:00;;;;;;;1.75;0.40;;;4.60;99.90;;;;;;4951466;29;20027;-62
2021/12/02 02:14:27;;;;;;;1.45;0.43;;;4.70;99.90;;;;;;4951419;29;20035;-62
2021/12/02 02:16:54;;;;;;;1.38;0.57;;;4.70;99.90;;;;;;4951782;29;20039;-62
2021/12/02 02:19:20;;;;;;;1.67;0.85;;;4.70;99.90;;;;;;4951494;29;20038;-62
2021/12/02 02:21:46;;;;;;;1.10;0.43;;;4.60;99.90;;;;;;4950030;29;20027;-62
2021/12/02 02:24:14;;;;;;;3.05;0.50;;;4.70;99.90;;;;;;4951186;28;20031;-62
2021/12/02 02:26:41;;;;;;;0.68;0.40;;;4.70;99.90;;;;;;4944621;29;20395;-62
2021/12/02 02:29:09;;;;;;;2.05;0.32;;;4.70;99.90;;;;;;4951294;29;20062;-62
2021/12/02 02:31:37;;;;;;;0.93;0.40;;;4.60;99.90;;;;;;4950991;29;20477;-62
2021/12/02 02:34:03;;;;;;;1.23;0.50;;;4.60;99.90;;;;;;4951359;29;20035;-62
2021/12/02 02:36:32;;;;;;;1.27;0.22;;;4.60;99.90;;;;;;4950730;29;20039;-62
2021/12/02 02:38:59;;;;;;;1.38;0.70;;;4.60;99.90;;;;;;4933446;29;20125;-62
2021/12/02 02:41:33;;;;;;;3.38;0.50;;;4.60;99.90;;;;;;4950791;29;20353;-62
2021/12/02 02:43:59;;;;;;;1.75;0.52;;;4.60;99.90;;;;;;4951263;29;20027;-62
2021/12/02 02:46:33;;;;;;;2.35;0.50;;;4.50;99.90;;;;;;4950426;29;20035;-62
2021/12/02 02:49:01;;;;;;;0.70;0.40;;;4.50;99.90;;;;;;4950568;29;20031;-61
2021/12/02 02:51:30;;;;;;;1.63;0.47;;;4.50;99.90;;;;;;4950553;29;20035;-62
2021/12/02 02:53:57;;;;;;;1.23;0.50;;;4.50;99.90;;;;;;4950261;29;20483;-62
2021/12/02 02:56:27;;;;;;;1.85;0.50;;;4.50;99.90;;;;;;4951899;29;20042;-62
2021/12/02 03:01:49;;;;;;;1.67;0.55;;;4.50;99.90;;;;;;4949361;29;20054;-62
2021/12/02 03:04:27;;;;;;;2.75;0.57;;;4.50;99.90;;;;;;4950724;29;20042;-62
2021/12/02 03:06:57;;;;;;;1.08;0.50;;;4.50;99.90;;;;;;4950534;29;20039;-62
2021/12/02 03:09:38;;;;;;;1.92;0.47;;;4.50;99.90;;;;;;4950103;29;20027;-61
2021/12/02 03:12:14;;;;;;;2.00;0.45;;;4.50;99.90;;;;;;4948714;29;20057;-61
2021/12/02 03:17:08;;;;;;;2.30;0.73;;;4.30;99.90;;;;;;4950414;29;20499;-61
2021/12/02 03:19:35;;;;;;;2.85;0.80;;;4.30;99.90;;;;;;4949268;29;20121;-61
2021/12/02 03:22:01;;;;;;;4.05;1.23;;;4.40;99.90;;;;;;4950041;29;20028;-61
2021/12/02 03:24:27;;;;;;;6.07;1.00;;;4.30;99.90;;;;;;4949987;29;20836;-62
2021/12/02 03:26:53;;;;;;;3.15;0.82;;;4.30;99.90;;;;;;4949689;29;20051;-61
2021/12/02 03:29:19;;;;;;;1.85;0.80;;;4.20;99.90;;;;;;4950576;29;20030;-61
2021/12/02 03:31:45;;;;;;;3.08;0.90;;;4.20;99.90;;;;;;4949110;29;20023;-62
2021/12/02 03:34:11;;;;;;;4.43;0.85;;;4.20;99.90;;;;;;4950514;29;20039;-61
2021/12/02 03:36:37;;;;;;;3.95;1.00;;;4.20;99.90;;;;;;4951667;28;20467;-62
2021/12/02 03:39:05;;;;;;;1.65;0.90;;;4.20;99.90;;;;;;4954239;29;20172;-62
2021/12/02 03:41:32;;;;;;;3.50;1.08;;;4.20;99.90;;;;;;4955062;29;20039;-62
2021/12/02 03:43:58;;;;;;;2.70;1.27;;;4.20;99.90;;;;;;4953544;29;20373;-62
2021/12/02 03:46:25;;;;;;;4.35;1.15;;;4.20;99.90;;;;;;4953682;29;20031;-61
2021/12/02 03:48:52;;;;;;;2.55;0.80;;;4.10;99.90;;;;;;4953580;29;20027;-61
2021/12/02 03:51:18;;;;;;;2.88;0.70;;;4.10;99.90;;;;;;4953513;29;20034;-61
2021/12/02 03:53:45;;;;;;;1.40;0.60;;;4.10;99.90;;;;;;4952470;29;20119;-62
2021/12/02 03:56:11;;;;;;;2.03;0.70;;;4.10;99.90;;;;;;4954160;29;20027;-61
2021/12/02 03:58:38;;;;;;;2.05;0.55;;;4.00;99.90;;;;;;4952650;29;20447;-62
2021/12/02 04:01:05;;;;;;;2.83;0.60;;;4.00;99.90;;;;;;4953717;29;20028;-61
2021/12/02 04:03:32;;;;;;;2.60;0.73;;;4.00;99.90;;;;;;4953953;29;20119;-62
2021/12/02 04:05:58;;;;;;;4.60;0.60;;;3.90;99.90;;;;;;4953153;29;20055;-61
2021/12/02 04:08:37;;;;;;;2.42;0.65;;;4.00;99.90;;;;;;4953821;29;20086;-62
2021/12/02 04:11:17;;;;;;;3.97;0.80;;;3.90;99.90;;;;;;4954523;29;20058;-61
2021/12/02 04:14:07;;;;;;;2.00;0.70;;;4.00;99.90;;;;;;4953289;29;20472;-61
2021/12/02 04:16:36;;;;;;;1.77;0.73;;;4.00;99.90;;;;;;4952916;29;20474;-62
2021/12/02 04:19:03;;;;;;;2.10;0.95;;;3.90;99.90;;;;;;4953058;29;20052;-61
2021/12/02 04:21:29;;;;;;;2.53;0.90;;;3.90;99.90;;;;;;4936234;29;20094;-62
2021/12/02 04:23:55;;;;;;;2.92;1.27;;;3.90;99.90;;;;;;4952521;28;20121;-62
2021/12/02 04:26:21;;;;;;;3.08;1.20;;;3.90;99.90;;;;;;4953146;29;20150;-61
2021/12/02 04:28:46;;;;;;;2.88;1.10;;;3.90;99.90;;;;;;4952944;29;20039;-61
2021/12/02 04:31:12;;;;;;;5.15;1.65;;;3.90;99.90;;;;;;4952963;29;20502;-61
2021/12/02 04:33:38;;;;;;;7.15;1.42;;;3.90;99.90;;;;;;4952133;29;20039;-61
2021/12/02 04:36:04;;;;;;;3.78;1.38;;;3.90;99.90;;;;;;4952311;29;20035;-61
2021/12/02 04:38:29;;;;;;;3.03;1.23;;;3.90;99.90;;;;;;4952787;29;20035;-62
2021/12/02 04:40:56;;;;;;;4.03;1.52;;;3.90;99.90;;;;;;4952497;29;20027;-62
2021/12/02 04:43:22;;;;;;;3.40;1.35;;;3.90;99.90;;;;;;4952960;29;20051;-61
2021/12/02 04:45:48;;;;;;;2.80;1.45;;;3.90;99.90;;;;;;4951992;28;20164;-62
2021/12/02 04:48:15;;;;;;;4.68;1.33;;;3.90;99.90;;;;;;4952820;29;20522;-61
2021/12/02 04:50:41;;;;;;;3.85;1.40;;;3.90;99.90;;;;;;4952072;29;20451;-62
2021/12/02 04:53:06;;;;;;;2.53;1.10;;;3.90;99.90;;;;;;4952836;29;20062;-61
2021/12/02 04:55:32;;;;;;;4.47;1.63;;;3.90;99.90;;;;;;4953183;29;20039;-62
2021/12/02 04:57:58;;;;;;;3.00;1.33;;;3.90;99.90;;;;;;4952550;29;20031;-62
2021/12/02 05:00:24;;;;;;;5.20;0.95;;;3.90;99.90;;;;;;4952738;29;20028;-61
2021/12/02 05:02:51;;;;;;;3.83;1.25;;;3.90;99.90;;;;;;4952051;29;20035;-61
2021/12/02 05:05:17;;;;;;;3.10;1.52;;;4.00;99.90;;;;;;4952990;29;20448;-61
2021/12/02 05:07:43;;;;;;;2.40;1.17;;;3.90;99.90;;;;;;4951995;29;20023;-62
2021/12/02 05:10:09;;;;;;;3.22;1.30;;;4.00;99.90;;;;;;4953025;29;20028;-61
2021/12/02 05:12:35;;;;;;;3.83;1.17;;;4.00;99.90;;;;;;4951847;29;20118;-62
2021/12/02 05:15:02;;;;;;;3.20;1.10;;;4.00;99.90;;;;;;4951963;29;20141;-62
2021/12/02 05:17:28;;;;;;;5.20;1.70;;;3.90;99.90;;;;;;4951029;29;20023;-61
2021/12/02 05:19:54;;;;;;;2.28;1.10;;;3.90;99.90;;;;;;4951691;29;20039;-61
2021/12/02 05:22:19;;;;;;;3.40;1.50;;;4.00;99.90;;;;;;4950670;29;20039;-61
2021/12/02 05:24:45;;;;;;;4.63;1.00;;;3.90;99.90;;;;;;4951532;29;20027;-61
2021/12/02 05:27:12;;;;;;;3.30;1.05;;;3.90;99.90;;;;;;4951908;29;20043;-61
2021/12/02 05:29:38;;;;;;;4.53;1.08;;;3.90;99.90;;;;;;4950920;29;20035;-62
2021/12/02 05:32:05;;;;;;;3.38;1.70;;;3.90;99.90;;;;;;4952388;29;20545;-62
2021/12/02 05:34:31;;;;;;;2.78;1.08;;;3.90;99.90;;;;;;4950644;29;20083;-61
2021/12/02 05:36:56;;;;;;;2.58;1.10;;;4.00;99.90;;;;;;4949596;29;20687;-61
2021/12/02 05:39:22;;;;;;;4.72;1.10;;;3.90;99.90;;;;;;4951873;29;20033;-61
2021/12/02 05:41:48;;;;;;;2.10;0.80;;;4.00;99.90;;;;;;4950775;29;20495;-62
2021/12/02 05:44:13;;;;;;;3.20;0.93;;;3.90;99.90;;;;;;4951926;29;20046;-62
2021/12/02 05:46:39;;;;;;;2.50;0.98;;;3.90;99.90;;;;;;4950791;28;20043;-62
2021/12/02 05:49:05;;;;;;;4.00;1.00;;;3.90;99.90;;;;;;4951547;29;20034;-61
2021/12/02 05:51:30;;;;;;;3.13;0.95;;;3.90;99.90;;;;;;4951637;29;20106;-61
2021/12/02 05:53:56;;;;;;;1.60;0.85;;;3.90;99.90;;;;;;4950441;29;20035;-62
2021/12/02 05:56:22;;;;;;;3.13;1.00;;;3.90;99.90;;;;;;4952057;29;20384;-61
2021/12/02 05:58:48;;;;;;;4.30;0.98;;;3.90;99.90;;;;;;4948371;28;20090;-59
2021/12/02 06:01:14;;;;;;;2.53;1.00;;;3.80;99.90;;;;;;4950043;29;20102;-59
2021/12/02 06:03:40;;;;;;;1.85;0.88;;;3.80;99.90;;;;;;4950718;29;20039;-59
2021/12/02 06:06:06;;;;;;;3.65;1.08;;;3.80;99.90;;;;;;4949727;29;20027;-59
2021/12/02 06:08:32;;;;;;;1.35;0.65;;;3.80;99.90;;;;;;4951263;29;20565;-60
2021/12/02 06:10:58;;;;;;;1.73;0.77;;;3.80;99.90;;;;;;4954736;28;20034;-59
2021/12/02 06:13:25;;;;;;;5.72;1.55;;;3.80;99.90;;;;;;4950171;29;20110;-59
2021/12/02 06:15:51;;;;;;;3.58;1.25;;;3.80;99.90;;;;;;4948019;29;20138;-59
2021/12/02 06:18:17;;;;;;;3.42;1.38;;;3.80;99.90;;;;;;4946568;29;20540;-59
2021/12/02 06:20:43;;;;;;;4.25;1.45;;;3.80;99.90;;;;;;4944850;29;20118;-59
2021/12/02 06:23:09;;;;;;;3.45;1.17;;;3.80;99.90;;;;;;4947221;29;20114;-59
2021/12/02 06:28:03;;;;;;;2.72;1.40;;;3.80;99.90;;;;;;4950644;29;20027;-60
2021/12/02 06:30:29;;;;;;;4.50;1.55;;;3.80;99.90;;;;;;4949780;29;20047;-59
2021/12/02 06:32:55;;;;;;;4.78;1.52;;;3.70;99.90;;;;;;4949890;29;20389;-59
2021/12/02 06:35:21;;;;;;;2.85;1.20;;;3.70;99.90;;;;;;4952638;29;20039;-59
2021/12/02 06:37:47;;;;;;;5.15;1.80;;;3.70;99.90;;;;;;4949851;29;20119;-59
2021/12/02 06:40:14;;;;;;;4.93;1.90;;;3.80;99.90;;;;;;4950059;29;20381;-59
2021/12/02 06:42:41;;;;;;;4.47;1.75;;;3.70;99.90;;;;;;4950568;29;20497;-59
2021/12/02 06:45:08;;;;;;;5.95;1.80;;;3.70;99.90;;;;;;4950332;28;20027;-59
2021/12/02 06:47:40;;;;;;;5.50;1.80;;;3.70;99.90;;;;;;4950349;29;20035;-60
2021/12/02 06:50:18;;;;;;;4.32;1.73;;;3.70;99.90;;;;;;4950555;29;20138;-59
2021/12/02 06:52:45;;;;;;;4.35;1.50;;;3.70;99.90;;;;;;4950245;29;20122;-59
2021/12/02 06:55:11;;;;;;;4.90;1.83;;;3.70;99.90;;;;;;4950838;29;20357;-59
2021/12/02 06:57:37;;;;;;;5.63;1.50;;;3.70;99.90;;;;;;4950199;28;20073;-59
2021/12/02 07:00:07;;;;;;;4.85;1.77;;;3.70;99.90;;;;;;4946077;29;20479;-59
2021/12/02 07:02:33;;;;;;;4.60;1.48;;;3.70;99.90;;;;;;4949490;29;20487;-59
2021/12/02 07:04:59;;;;;;;4.15;1.80;;;3.70;99.90;;;;;;4950075;29;20032;-59
2021/12/02 07:07:30;;;;;;;3.72;1.80;;;3.70;99.90;;;;;;4950566;29;20020;-59
2021/12/02 07:09:55;;;;;;;3.40;1.70;;;3.70;99.90;;;;;;4950598;28;20035;-59
2021/12/02 07:12:28;;;;;;;5.30;2.13;;;3.70;99.90;;;;;;4950888;28;20398;-59
2021/12/02 07:14:54;;;;;;;3.45;1.63;;;3.70;99.90;;;;;;4950134;29;20023;-59
2021/12/02 07:17:20;;;;;;;4.45;1.70;;;3.70;99.90;;;;;;4948952;29;20383;-59
2021/12/02 07:19:45;;;;;;;4.57;1.98;;;3.70;99.90;;;;;;4946565;29;20031;-60
2021/12/02 07:22:11;;;;;;;4.97;1.98;;;3.70;99.90;;;;;;4950127;29;20027;-59
2021/12/02 07:24:37;;;;;;;3.45;1.90;;;3.70;99.90;;;;;;4949604;29;20063;-59
2021/12/02 07:27:03;;;;;;;4.70;1.88;;;3.70;99.90;;;;;;4949362;29;20090;-60
2021/12/02 07:29:28;;;;;;;5.10;1.70;;;3.60;99.90;;;;;;4950484;29;20468;-59
2021/12/02 07:31:55;;;;;;;2.35;1.10;;;3.70;99.90;;;;;;4948115;29;20512;-59
2021/12/02 07:34:25;;;;;;;3.40;1.63;;;3.60;99.90;;;;;;4949771;29;20039;-59
2021/12/02 07:36:53;;;;;;;3.25;1.40;;;3.60;99.90;;;;;;4949734;29;20146;-60
2021/12/02 07:39:19;;;;;;;3.88;1.40;;;3.60;99.90;;;;;;4950296;29;20499;-59
2021/12/02 07:41:45;;;;;;;3.92;1.42;;;3.60;99.90;;;;;;4949855;29;20106;-60
2021/12/02 07:44:11;;;;;;;4.35;1.17;;;3.60;99.90;;;;;;4949933;29;20786;-59
2021/12/02 07:46:37;;;;;;;2.97;1.27;;;3.60;99.90;;;;;;4947910;29;20069;-60
2021/12/02 07:49:03;;;;;;;2.55;1.00;;;3.60;99.90;;;;;;4949601;29;20598;-60
2021/12/02 07:51:30;;;;;;;2.58;0.88;;;3.60;99.90;;;;;;4950309;29;20369;-59
2021/12/02 07:54:01;;;;;;;3.55;0.90;;;3.60;99.90;;;;;;4947894;29;20559;-59
2021/12/02 07:56:31;;;;;;;1.65;0.90;;;3.60;99.90;;;;;;4949588;29;20031;-59
2021/12/02 07:58:57;;;;;;;2.28;0.88;;;3.60;99.90;;;;;;4948108;29;20032;-59
2021/12/02 08:01:23;;;;;;;1.48;0.63;;;3.60;99.90;;;;;;4950404;28;20041;-59
2021/12/02 08:03:48;;;;;;;1.77;0.75;;;3.60;99.90;;;;;;4947371;29;20031;-60
2021/12/02 08:06:16;;;;;;;1.60;0.73;;;3.60;99.90;;;;;;4948572;29;20027;-59
2021/12/02 08:08:44;;;;;;;3.65;0.80;;;3.70;99.90;;;;;;4947087;28;20039;-60
2021/12/02 08:11:11;;;;;;;1.40;0.70;;;3.70;99.90;;;;;;4951694;28;20031;-59
2021/12/02 08:13:36;;;;;;;2.00;1.00;;;3.80;99.90;;;;;;4942296;29;20126;-59
2021/12/02 08:16:04;;;;;;;3.30;1.20;;;3.80;99.90;;;;;;4931822;29;20122;-59
2021/12/02 08:18:30;;;;;;;1.75;0.90;;;3.70;99.90;;;;;;4947658;29;20074;-59
2021/12/02 08:20:56;;;;;;;2.88;1.60;;;3.70;99.90;;;;;;4944432;28;20062;-60
2021/12/02 08:23:22;;;;;;;3.72;1.85;;;3.70;99.90;;;;;;4949252;28;20061;-58
2021/12/02 08:25:48;;;;;;;3.67;1.85;;;3.80;99.90;;;;;;4950781;29;20496;-60
2021/12/02 08:28:15;;;;;;;3.95;1.50;;;3.80;99.90;;;;;;4952006;29;20064;-58
2021/12/02 08:30:41;;;;;;;2.88;1.50;;;3.80;99.90;;;;;;4950837;29;20031;-60
2021/12/02 08:33:08;;;;;;;4.80;1.80;;;3.90;99.90;;;;;;4950998;29;20050;-59
2021/12/02 08:35:35;;;;;;;2.88;1.40;;;3.90;99.90;;;;;;4954178;29;20031;-59
2021/12/02 08:38:08;;;;;;;2.47;1.38;;;3.90;99.90;;;;;;4953268;29;20035;-59
2021/12/02 08:40:36;;;;;;;3.78;1.42;;;3.90;99.90;;;;;;4953819;29;20023;-59
2021/12/02 08:43:04;;;;;;;2.75;1.13;;;4.00;99.90;;;;;;4952511;29;20757;-59
2021/12/02 08:45:30;;;;;;;7.05;1.58;;;3.90;99.90;;;;;;4936543;29;20495;-59
2021/12/02 08:47:58;;;;;;;2.58;1.23;;;3.90;99.90;;;;;;4952727;29;20062;-60
2021/12/02 08:50:25;;;;;;;3.28;1.58;;;4.00;99.90;;;;;;4953311;29;20043;-59
2021/12/02 08:52:52;;;;;;;3.47;1.40;;;4.00;99.90;;;;;;4952862;29;20047;-60
2021/12/02 08:55:20;;;;;;;3.15;1.63;;;4.10;99.90;;;;;;4940011;29;20041;-59
2021/12/02 08:57:47;;;;;;;4.63;2.10;;;4.10;99.90;;;;;;4953103;29;20480;-59
2021/12/02 09:00:17;;;;;;;4.07;1.60;;;4.10;99.90;;;;;;4952540;29;20090;-60
2021/12/02 09:02:43;;;;;;;4.32;1.80;;;4.20;99.90;;;;;;4935677;29;20070;-59
2021/12/02 09:05:09;;;;;;;5.13;2.05;;;4.10;99.90;;;;;;4951364;28;20110;-59
2021/12/02 09:07:35;;;;;;;4.38;1.95;;;4.10;99.90;;;;;;4953079;29;20450;-59
2021/12/02 09:10:02;;;;;;;4.60;2.10;;;4.10;99.90;;;;;;4951435;29;20034;-58
2021/12/02 09:12:28;;;;;;;4.72;1.65;;;4.20;99.90;;;;;;4952914;29;20039;-59
2021/12/02 09:14:53;;;;;;;4.07;1.92;;;4.20;99.90;;;;;;4952473;29;20468;-60
2021/12/02 09:17:19;;;;;;;2.78;1.45;;;4.20;99.90;;;;;;4952764;29;20031;-59
2021/12/02 09:19:45;;;;;;;7.38;2.17;;;4.20;99.90;;;;;;4953162;29;20070;-59
2021/12/02 09:22:11;;;;;;;4.68;1.80;;;4.20;99.90;;;;;;4951069;28;20067;-59
2021/12/02 09:24:39;;;;;;;4.10;1.75;;;4.20;99.90;;;;;;4951247;29;20046;-60
2021/12/02 09:27:05;;;;;;;7.10;2.20;;;4.20;99.90;;;;;;4951605;29;20047;-59
2021/12/02 09:29:31;;;;;;;3.70;1.90;;;4.20;99.90;;;;;;4953043;29;20039;-59
2021/12/02 09:31:57;;;;;;;3.60;1.73;;;4.30;99.90;;;;;;4951824;29;20384;-60
2021/12/02 09:34:23;;;;;;;3.05;2.00;;;4.20;99.90;;;;;;4952819;28;20046;-59
2021/12/02 09:36:49;;;;;;;5.63;2.17;;;4.30;99.90;;;;;;4952025;29;20055;-59
2021/12/02 09:39:15;;;;;;;6.00;2.10;;;4.30;99.90;;;;;;4952045;29;20038;-59
2021/12/02 09:41:44;;;;;;;6.13;2.10;;;4.40;99.90;;;;;;4952818;29;20038;-59
2021/12/02 09:44:10;;;;;;;3.90;2.08;;;4.50;99.90;;;;;;4952371;29;20043;-59
2021/12/02 09:46:38;;;;;;;3.80;2.00;;;4.60;99.90;;;;;;4952573;29;20035;-59
2021/12/02 09:49:05;;;;;;;4.20;2.33;;;4.60;99.90;;;;;;4951787;29;20034;-59
2021/12/02 09:51:46;;;;;;;5.22;2.78;;;4.70;99.90;;;;;;4952671;29;20166;-59
2021/12/02 09:54:21;;;;;;;4.68;2.08;;;4.70;99.90;;;;;;4951303;29;20818;-60
2021/12/02 09:56:50;;;;;;;3.55;1.70;;;4.70;99.90;;;;;;4952559;29;20114;-59
2021/12/02 09:59:25;;;;;;;3.58;2.10;;;4.70;99.90;;;;;;4951796;29;20023;-59
2021/12/02 10:01:56;;;;;;;4.88;1.58;;;4.70;99.90;;;;;;4951612;29;20034;-59
2021/12/02 10:04:23;;;;;;;3.10;1.77;;;4.70;99.90;;;;;;4952287;29;20039;-59
2021/12/02 10:07:03;;;;;;;4.13;2.00;;;4.60;99.90;;;;;;4952385;29;20035;-59
2021/12/02 10:09:39;;;;;;;3.75;2.15;;;4.60;99.90;;;;;;4951432;29;20519;-59
2021/12/02 10:12:14;;;;;;;3.20;1.63;;;4.60;99.90;;;;;;4951006;29;20384;-59
2021/12/02 10:14:44;;;;;;;2.90;1.73;;;4.60;99.90;;;;;;4951907;29;20077;-60
2021/12/02 10:23:24;;;;;;;6.63;2.25;;;4.70;99.90;;;;;;4951398;29;20043;-59
2021/12/02 10:25:58;;;;;;;6.00;1.80;;;4.70;99.90;;;;;;4949263;28;20555;-59
2021/12/02 10:28:25;;;;;;;4.85;2.08;;;4.80;99.90;;;;;;4952218;29;20093;-60
2021/12/02 10:30:57;;;;;;;5.82;2.08;;;4.80;99.90;;;;;;4951101;28;20042;-59
2021/12/02 10:33:28;;;;;;;7.35;1.95;;;4.80;99.90;;;;;;4951844;28;20046;-59
2021/12/02 10:35:54;;;;;;;5.43;1.88;;;4.90;99.90;;;;;;4950936;29;20027;-60
2021/12/02 10:38:37;;;;;;;5.05;1.92;;;4.90;99.90;;;;;;4950546;29;20499;-59
2021/12/02 10:41:09;;;;;;;3.88;1.63;;;5.00;99.90;;;;;;4935964;29;20054;-59
2021/12/02 10:43:39;;;;;;;4.57;1.83;;;5.00;99.90;;;;;;4951105;29;20043;-60
2021/12/02 10:46:32;;;;;;;5.05;1.85;;;5.00;99.90;;;;;;4949593;28;20031;-60
2021/12/02 10:48:58;;;;;;;4.50;1.65;;;4.80;99.90;;;;;;4948789;29;20039;-59
2021/12/02 10:51:50;;;;;;;5.65;1.65;;;4.80;99.90;;;;;;4951177;29;20085;-59
2021/12/02 10:54:25;;;;;;;3.78;1.70;;;4.70;99.90;;;;;;4950729;28;20031;-59
2021/12/02 10:56:54;;;;;;;4.38;1.40;;;4.60;99.90;;;;;;4951370;29;20039;-59
2021/12/02 10:59:27;;;;;;;3.20;1.40;;;4.60;99.90;;;;;;4965773;28;20394;-59
2021/12/02 11:01:54;;;;;;;5.53;1.55;;;4.50;99.90;;;;;;4951064;28;20527;-59
2021/12/02 11:04:21;;;;;;;1.50;0.63;;;4.30;99.90;;;;;;4950121;29;20119;-59
2021/12/02 11:06:48;;;;;;;0.95;0.40;;;4.10;99.90;;;;;;4951499;28;20745;-59
2021/12/02 11:09:32;;;;;;;0.60;0.32;;;3.90;99.90;;;;;;4950269;28;20138;-59
2021/12/02 11:12:12;;;;;;;0.68;0.30;;;3.70;99.90;;;;;;4950543;28;20038;-60
2021/12/02 11:14:59;;;;;;;0.32;0.10;;;3.60;99.90;;;;;;4965415;28;20054;-59
2021/12/02 11:17:29;;;;;;;0.22;0.10;;;3.50;99.90;;;;;;4950911;29;20038;-59
2021/12/02 11:19:57;;;;;;;0.13;0.10;;;3.50;99.90;;;;;;4950959;28;20427;-59
2021/12/02 11:22:24;;;;;;;0.20;0.17;;;3.40;99.90;;;;;;4950555;28;20031;-59
2021/12/02 11:24:51;;;;;;;1.25;0.10;;;3.30;99.90;;;;;;4950627;28;20488;-60
2021/12/02 11:27:20;;;;;;;0.10;0.00;;;3.20;99.90;;;;;;4949861;29;20031;-59
2021/12/02 11:29:55;;;;;;;0.43;0.00;;;3.10;99.90;;;;;;4950915;29;20129;-59
2021/12/02 11:32:30;;;;;;;0.10;0.00;;;2.90;99.90;;;;;;4949007;29;20027;-59
2021/12/02 11:35:15;;;;;;;0.20;0.00;;;2.80;99.90;;;;;;4950933;29;20034;-59
2021/12/02 11:37:45;;;;;;;0.20;0.10;;;2.70;99.90;;;;;;4950962;29;20430;-60
2021/12/02 11:40:18;;;;;;;0.10;0.10;;;2.70;99.90;;;;;;4950555;29;20464;-60
2021/12/02 11:42:45;;;;;;;0.75;0.13;;;2.70;99.90;;;;;;4950550;29;20035;-59
2021/12/02 11:45:13;;;;;;;1.17;0.35;;;2.70;99.90;;;;;;4950387;29;20030;-59
2021/12/02 11:47:40;;;;;;;0.65;0.20;;;2.70;99.90;;;;;;4951228;29;20031;-60
2021/12/02 11:50:08;;;;;;;0.60;0.22;;;2.70;99.90;;;;;;4949848;29;20057;-60
2021/12/02 11:52:37;;;;;;;0.52;0.30;;;2.70;99.90;;;;;;4950730;29;20167;-60
2021/12/02 11:55:08;;;;;;;1.08;0.50;;;2.70;99.90;;;;;;4949863;29;20122;-60
2021/12/02 11:57:34;;;;;;;1.33;0.73;;;2.80;99.90;;;;;;4952607;28;20031;-60
2021/12/02 12:00:02;;;;;;;1.08;0.40;;;2.90;99.90;;;;;;4936890;29;20392;-60
2021/12/02 12:02:28;;;;;;;1.95;0.68;;;2.90;99.90;;;;;;4948194;29;20031;-59
2021/12/02 12:05:03;;;;;;;1.45;0.70;;;2.90;99.90;;;;;;4954498;29;20490;-59
2021/12/02 12:07:46;;;;;;;1.38;0.50;;;3.00;99.90;;;;;;4954644;29;20484;-59
2021/12/02 12:10:20;;;;;;;3.08;1.17;;;3.00;99.90;;;;;;4952699;29;20043;-59
2021/12/02 12:12:46;;;;;;;2.17;1.00;;;2.90;99.90;;;;;;4954305;29;20050;-59
2021/12/02 12:15:31;;;;;;;2.45;0.65;;;3.00;99.90;;;;;;4953277;29;20086;-60
2021/12/02 12:17:57;;;;;;;2.08;1.13;;;3.10;99.90;;;;;;4954799;29;20105;-59
2021/12/02 12:21:02;;;;;;;2.25;1.20;;;3.20;99.90;;;;;;4953395;29;20039;-59
2021/12/02 12:23:45;;;;;;;1.88;0.90;;;3.10;99.90;;;;;;4954279;29;20050;-59
2021/12/02 12:26:11;;;;;;;3.10;1.40;;;3.30;99.90;;;;;;4953080;29;20056;-60
2021/12/02 12:29:08;;;;;;;1.65;0.98;;;3.30;99.90;;;;;;4954122;29;20042;-59
2021/12/02 12:31:56;;;;;;;3.85;1.40;;;3.30;99.90;;;;;;4935907;29;20364;-60
2021/12/02 12:34:32;;;;;;;3.80;1.60;;;3.30;99.90;;;;;;4953250;29;20122;-59
2021/12/02 12:36:59;;;;;;;4.03;1.80;;;3.30;99.90;;;;;;4953789;29;20382;-59
2021/12/02 12:39:33;;;;;;;3.00;1.60;;;3.30;99.90;;;;;;4952902;29;20043;-59
2021/12/02 12:42:17;;;;;;;3.40;1.80;;;3.40;99.90;;;;;;4953867;29;20059;-60
2021/12/02 12:44:54;;;;;;;6.82;1.75;;;3.50;99.90;;;;;;4953884;29;20031;-59
2021/12/02 12:47:40;;;;;;;2.90;1.70;;;3.60;99.90;;;;;;4953134;29;20063;-59
2021/12/02 12:50:44;;;;;;;3.58;1.63;;;3.60;99.90;;;;;;4952514;29;20031;-60
2021/12/02 12:53:16;;;;;;;2.92;1.63;;;3.60;99.90;;;;;;4953015;29;20054;-60
2021/12/02 12:55:52;;;;;;;2.75;1.50;;;3.60;99.90;;;;;;4952745;29;20126;-59
2021/12/02 12:58:26;;;;;;;2.67;1.50;;;3.60;99.90;;;;;;4951586;29;20062;-59
2021/12/02 13:00:56;;;;;;;3.15;1.60;;;3.60;99.90;;;;;;4953325;29;20035;-60
2021/12/02 13:03:30;;;;;;;3.17;1.48;;;3.50;99.90;;;;;;4951350;29;20035;-59
2021/12/02 13:06:24;;;;;;;3.53;1.90;;;3.50;99.90;;;;;;4953933;29;20074;-59
2021/12/02 13:08:50;;;;;;;4.47;1.92;;;3.40;99.90;;;;;;4952015;28;20036;-60
2021/12/02 13:11:22;;;;;;;8.05;1.98;;;3.40;99.90;;;;;;4952501;29;20031;-60
2021/12/02 13:13:51;;;;;;;3.83;1.95;;;3.40;99.90;;;;;;4953658;29;20120;-59
2021/12/02 13:16:20;;;;;;;3.03;1.75;;;3.30;99.90;;;;;;4952257;29;20057;-59
2021/12/02 13:18:50;;;;;;;4.03;2.20;;;3.40;99.90;;;;;;4953120;29;20101;-59
2021/12/02 13:21:32;;;;;;;4.65;2.28;;;3.40;99.90;;;;;;4951129;29;20035;-59
2021/12/02 13:24:09;;;;;;;6.13;2.70;;;3.40;99.90;;;;;;4953665;29;20114;-59
2021/12/02 13:26:54;;;;;;;6.43;2.90;;;3.40;99.90;;;;;;4952956;29;20115;-59
2021/12/02 13:29:28;;;;;;;5.22;2.33;;;3.40;99.90;;;;;;4952294;29;20057;-59